MacDowall, Canada
Current Conditions -  °F | °C
As of 7:14 PM on Sunday 23 Nov 2014 (Local Time) from CYPA Reporting Station
Few Clouds Few Clouds  
Wind Chill:   Ceiling: Unl
Heat Index:   Visibility: 15mi
Dew Point:   Wind: 2mph
Humidity: 92%   Direction: 140°SE
Pressure: 29.87"   Gusts: NA
Location:  53.02°N, 106.01°W
Report Text: CYPA 240114Z 14002KT 15SM FEW120 M17/M18 A2987 RMK AC2 SLP156
Loading
Personal Weather Stations






























Interactive Weather Map New forecast layout! Learn more

10-Day Weather Forecast

Advertisements
Track Severe Weather on mobile